Strona główna
METAR-TAF:

METAR-TAF

Lotnisko :

Port lotniczy Sibu

Sibu, Malezja

Szerokość geograficzna: 02-20N, Długość geograficzna: 111-50E, wysokość: 8 m

Aktualna obserwacja pogody

Raport powstał 46 minut temu, godzina 11:00 UTC
Wiatr 4 kt od północ, zmienny między północny zachód i północno-północny wschód
Temperatura 29°C
Wilgotność 74%
Ciśnienie 1009 hPa
Widzialność 10 km lub więcej
Mało chmury na wysokości 1500 ft, Cumulonimbus.
Rozproszone chmury na wysokości 1800 ft
Przerywane chmury na wysokości 30000 ft

METAR: WBGS 181100Z 35004KT 320V020 9999 FEW015CB SCT018 BKN300 29/24 Q1009

czas: 19:46 (11:46 UTC)

Prognoza

Raport powstał 46 minut temu, godzina 11:00 UTC
Prognoza ważna od 18 godzina 12 UTC do 19 godzina 12 UTC
Wiatr 3 kt z kierunków zmiennych
Widzialność 10 km lub więcej
Rozproszone chmury na wysokości 1800 ft

TAF: WBGS 181100Z 1812/1912 VRB03KT 9999 SCT018

Obserwacja i prognoza pogody dla ponad 4000 lotnisk (raport METAR i TAF).

Dostępne stacje oznaczono żółtymi i czerwonymi punktami na mapie.

Najedź kursorem aby zobaczyć nazwę stacji.

Kliknij aby zobaczyć obserwacje i prognozy pogody.

Aby zmienić mapę: kliknij na zielony przycisk z czarnym krzyżykiem, aby powiększyć; na zielony przycisk z myślnikiem, aby pomniejszyć; na zielone strzałki, aby przejść do map sąsiednich.


METAR-TAF: